createdAt,value
2022-08-11T00:00:14.294Z,17.80
2022-08-11T00:02:53.656Z,17.76
2022-08-11T00:05:22.093Z,17.69
2022-08-11T00:07:56.844Z,17.66
2022-08-11T00:10:26.346Z,17.62
2022-08-11T00:12:59.174Z,17.57
2022-08-11T00:15:28.620Z,17.53
2022-08-11T00:18:00.425Z,17.50
2022-08-11T00:20:32.512Z,17.45
2022-08-11T00:23:07.035Z,17.40
2022-08-11T00:25:39.861Z,17.36
2022-08-11T00:28:27.083Z,17.27
2022-08-11T00:30:56.393Z,17.25
2022-08-11T00:33:44.796Z,17.21
2022-08-11T00:36:15.749Z,17.17
2022-08-11T00:38:44.665Z,17.13
2022-08-11T00:41:35.165Z,17.07
2022-08-11T00:44:23.457Z,17.04
2022-08-11T00:47:02.263Z,16.98
2022-08-11T00:49:33.991Z,16.93
2022-08-11T00:52:22.313Z,16.90
2022-08-11T00:55:18.525Z,16.86
2022-08-11T00:58:39.597Z,16.81
2022-08-11T01:01:13.401Z,16.75
2022-08-11T01:03:59.337Z,16.71
2022-08-11T01:06:45.134Z,16.67
2022-08-11T01:09:36.799Z,16.63
2022-08-11T01:12:21.804Z,16.58
2022-08-11T01:14:58.025Z,16.56
2022-08-11T01:17:42.975Z,16.52
2022-08-11T01:20:47.107Z,16.48
2022-08-11T01:23:27.604Z,16.46
2022-08-11T01:26:32.077Z,16.42
2022-08-11T01:29:37.022Z,16.37
2022-08-11T01:32:29.394Z,16.31
2022-08-11T01:35:18.095Z,16.24
2022-08-11T01:38:13.048Z,16.22
2022-08-11T01:40:47.295Z,16.18
2022-08-11T01:43:35.851Z,16.14
2022-08-11T01:46:21.381Z,16.08
2022-08-11T01:50:05.159Z,16.05
2022-08-11T01:52:30.919Z,16.01
2022-08-11T01:55:18.066Z,15.96
2022-08-11T01:57:56.661Z,15.94
2022-08-11T02:00:30.512Z,15.90
2022-08-11T02:03:28.774Z,15.85
2022-08-11T02:06:35.454Z,15.82
2022-08-11T02:09:20.241Z,15.80
2022-08-11T02:11:51.147Z,15.74
2022-08-11T02:14:24.101Z,15.72
2022-08-11T02:17:09.298Z,15.68
2022-08-11T02:20:26.193Z,15.66
2022-08-11T02:24:03.868Z,15.58
2022-08-11T02:26:35.435Z,15.57
2022-08-11T02:29:27.073Z,15.53
2022-08-11T02:32:39.717Z,15.50
2022-08-11T02:35:19.751Z,15.45
2022-08-11T02:38:01.440Z,15.42
2022-08-11T02:40:43.629Z,15.37
2022-08-11T02:43:32.298Z,15.36
2022-08-11T02:46:37.801Z,15.34
2022-08-11T02:50:03.482Z,15.26
2022-08-11T02:52:48.330Z,15.25
2022-08-11T02:55:44.559Z,15.23
2022-08-11T02:59:09.105Z,15.19
2022-08-11T03:02:05.072Z,15.12
2022-08-11T03:04:59.204Z,15.10
2022-08-11T03:07:55.576Z,15.08
2022-08-11T03:10:43.870Z,15.06
2022-08-11T03:13:53.600Z,15.03
2022-08-11T03:16:46.924Z,14.99
2022-08-11T03:19:44.861Z,14.96
2022-08-11T03:22:14.694Z,14.92
2022-08-11T03:24:59.710Z,14.89
2022-08-11T03:27:48.777Z,14.84
2022-08-11T03:30:31.836Z,14.82
2022-08-11T03:33:44.260Z,14.80
2022-08-11T03:37:15.422Z,14.76
2022-08-11T03:39:56.800Z,14.71
2022-08-11T03:43:01.249Z,14.68
2022-08-11T03:46:12.825Z,14.65
2022-08-11T03:49:09.517Z,14.61
2022-08-11T03:51:56.638Z,14.58
2022-08-11T03:54:42.049Z,14.56
2022-08-11T03:57:48.006Z,14.54
2022-08-11T04:00:38.226Z,14.50
2022-08-11T04:03:20.316Z,14.47
2022-08-11T04:06:16.333Z,14.43
2022-08-11T04:08:55.353Z,14.40
2022-08-11T04:11:51.517Z,14.38
2022-08-11T04:14:54.773Z,14.34
2022-08-11T04:17:50.516Z,14.30
2022-08-11T04:20:47.876Z,14.27
2022-08-11T04:24:34.526Z,14.22
2022-08-11T04:27:01.827Z,14.20
2022-08-11T04:30:12.071Z,14.16
2022-08-11T04:33:10.491Z,14.14
2022-08-11T04:36:02.541Z,14.09
2022-08-11T04:38:38.588Z,14.07
2022-08-11T04:41:33.123Z,14.04
2022-08-11T04:44:33.507Z,14.04
2022-08-11T04:48:03.689Z,14.01
2022-08-11T04:51:09.067Z,14.00
2022-08-11T04:54:19.190Z,13.97
2022-08-11T04:57:10.294Z,13.99
2022-08-11T05:00:16.175Z,13.97
2022-08-11T05:02:48.891Z,13.97
2022-08-11T05:05:31.094Z,13.95
2022-08-11T05:08:29.433Z,13.96
2022-08-11T05:11:23.270Z,13.95
2022-08-11T05:14:17.021Z,13.95
2022-08-11T05:17:10.581Z,13.96
2022-08-11T05:19:56.731Z,13.96
2022-08-11T05:22:48.325Z,13.97
2022-08-11T05:26:44.838Z,13.98
2022-08-11T05:28:52.322Z,14.03
2022-08-11T05:31:43.907Z,14.06
2022-08-11T05:34:43.998Z,14.12
2022-08-11T05:38:02.986Z,14.17
2022-08-11T05:40:52.961Z,14.19
2022-08-11T05:44:20.582Z,14.27
2022-08-11T05:46:48.260Z,14.31
2022-08-11T05:49:34.471Z,14.42
2022-08-11T05:52:21.689Z,14.49
2022-08-11T05:55:24.960Z,14.53
2022-08-11T05:58:03.760Z,14.64
2022-08-11T06:00:32.005Z,14.70
2022-08-11T06:03:04.077Z,14.79
2022-08-11T06:05:43.583Z,14.89
2022-08-11T06:08:13.517Z,14.96
2022-08-11T06:10:45.490Z,15.06
2022-08-11T06:13:17.524Z,15.15
2022-08-11T06:15:52.067Z,15.24
2022-08-11T06:18:19.919Z,15.28
2022-08-11T06:20:58.164Z,15.40
2022-08-11T06:23:32.548Z,15.50
2022-08-11T06:26:00.925Z,15.59
2022-08-11T06:28:37.621Z,15.69
2022-08-11T06:31:25.229Z,15.79
2022-08-11T06:34:09.142Z,15.87
2022-08-11T06:36:55.798Z,15.98
2022-08-11T06:39:31.873Z,16.09
2022-08-11T06:42:10.892Z,16.21
2022-08-11T06:44:44.435Z,16.31
2022-08-11T06:47:13.665Z,16.42
2022-08-11T06:50:04.014Z,16.52
2022-08-11T06:52:36.803Z,16.66
2022-08-11T06:55:57.303Z,16.76
2022-08-11T06:58:17.725Z,16.90
2022-08-11T07:00:49.090Z,17.01
2022-08-11T07:03:19.607Z,17.13
2022-08-11T07:05:49.523Z,17.24
2022-08-11T07:08:51.958Z,17.37
2022-08-11T07:12:15.288Z,17.52
2022-08-11T07:15:12.410Z,17.65
2022-08-11T07:18:09.814Z,17.80
2022-08-11T07:21:01.927Z,17.91
2022-08-11T07:23:53.189Z,18.08
2022-08-11T07:26:42.563Z,18.22
2022-08-11T07:29:14.998Z,18.38
2022-08-11T07:31:50.593Z,18.50
2022-08-11T07:34:36.740Z,18.66
2022-08-11T07:37:17.909Z,18.83
2022-08-11T07:39:47.578Z,18.99
2022-08-11T07:42:16.945Z,19.14
2022-08-11T07:45:06.035Z,19.26
2022-08-11T07:47:54.998Z,19.43
2022-08-11T07:50:41.213Z,19.58
2022-08-11T07:53:08.768Z,19.70
2022-08-11T07:55:51.356Z,19.87
2022-08-11T07:58:52.359Z,20.03
2022-08-11T08:01:44.685Z,20.18
2022-08-11T08:04:33.546Z,20.31
2022-08-11T08:07:21.948Z,20.47
2022-08-11T08:10:08.771Z,20.61
2022-08-11T08:12:55.149Z,20.74
2022-08-11T08:15:42.124Z,20.86
2022-08-11T08:18:25.915Z,21.01
2022-08-11T08:20:56.905Z,21.14
2022-08-11T08:23:34.373Z,21.26
2022-08-11T08:26:04.726Z,21.38
2022-08-11T08:28:33.624Z,21.47
2022-08-11T08:31:01.605Z,21.57
2022-08-11T08:33:31.058Z,21.67
2022-08-11T08:36:17.111Z,21.78
2022-08-11T08:38:49.081Z,21.90
2022-08-11T08:41:25.039Z,22.01
2022-08-11T08:43:56.404Z,22.10
2022-08-11T08:46:34.835Z,22.20
2022-08-11T08:49:03.839Z,22.28
2022-08-11T08:51:58.574Z,22.43
2022-08-11T08:54:37.492Z,22.54
2022-08-11T08:57:06.811Z,22.63
2022-08-11T08:59:49.211Z,22.74
2022-08-11T09:02:34.028Z,22.84
2022-08-11T09:05:04.446Z,22.93
2022-08-11T09:07:38.763Z,23.01
2022-08-11T09:10:09.453Z,23.12
2022-08-11T09:12:39.660Z,23.19
2022-08-11T09:15:10.252Z,23.27
2022-08-11T09:17:41.972Z,23.37
2022-08-11T09:20:29.286Z,23.43
2022-08-11T09:26:30.524Z,23.60
2022-08-11T09:28:59.942Z,23.69
2022-08-11T09:31:39.673Z,23.76
2022-08-11T09:34:10.304Z,23.85
2022-08-11T09:36:58.352Z,23.91
2022-08-11T09:39:46.277Z,24.00
2022-08-11T09:42:16.635Z,24.06
2022-08-11T09:44:53.980Z,24.15
2022-08-11T09:47:26.665Z,24.21
2022-08-11T09:49:59.991Z,24.30
2022-08-11T09:52:31.015Z,24.38
2022-08-11T09:54:59.107Z,24.43
2022-08-11T09:57:44.761Z,24.54
2022-08-11T10:00:14.279Z,24.65
2022-08-11T10:02:47.419Z,24.71
2022-08-11T10:05:38.941Z,24.77
2022-08-11T10:08:09.037Z,24.86
2022-08-11T10:10:37.860Z,24.95
2022-08-11T10:14:30.315Z,25.04
2022-08-11T10:16:15.690Z,25.10
2022-08-11T10:18:53.725Z,25.18
2022-08-11T10:21:39.025Z,25.26
2022-08-11T10:24:25.876Z,25.32
2022-08-11T10:26:55.279Z,25.39
2022-08-11T10:29:49.916Z,25.45
2022-08-11T10:32:58.510Z,25.53
2022-08-11T10:35:29.753Z,25.59
2022-08-11T10:38:06.863Z,25.65
2022-08-11T10:40:45.398Z,25.70
2022-08-11T10:43:56.753Z,25.76
2022-08-11T10:46:28.556Z,25.82
2022-08-11T10:48:59.247Z,25.87
2022-08-11T10:51:49.887Z,25.95
2022-08-11T10:54:36.720Z,26.01
2022-08-11T10:57:22.975Z,26.05
2022-08-11T10:59:50.325Z,26.09
2022-08-11T11:02:19.168Z,26.14
2022-08-11T11:05:15.525Z,26.20
2022-08-11T11:07:44.355Z,26.29
2022-08-11T11:10:12.021Z,26.32
2022-08-11T11:12:57.563Z,26.43
2022-08-11T11:15:47.553Z,26.49
2022-08-11T11:18:28.840Z,26.53
2022-08-11T11:21:00.394Z,26.58
2022-08-11T11:23:38.347Z,26.60
2022-08-11T11:26:27.305Z,26.62
2022-08-11T11:29:25.301Z,26.63
2022-08-11T11:32:31.705Z,26.68
2022-08-11T11:35:31.812Z,26.70
2022-08-11T11:38:04.758Z,26.70
2022-08-11T11:40:33.602Z,26.75
2022-08-11T11:43:01.778Z,26.78
2022-08-11T11:45:29.519Z,26.82
2022-08-11T11:47:59.678Z,26.90
2022-08-11T11:50:36.744Z,26.96
2022-08-11T11:53:09.865Z,27.00
2022-08-11T11:55:37.886Z,27.03
2022-08-11T11:58:24.737Z,27.08
2022-08-11T12:01:12.435Z,27.09
2022-08-11T12:03:40.744Z,27.12
2022-08-11T12:06:09.655Z,27.13
2022-08-11T12:08:37.849Z,27.14
2022-08-11T12:11:27.205Z,27.13
2022-08-11T12:13:56.919Z,27.13
2022-08-11T12:16:32.907Z,27.12
2022-08-11T12:19:05.472Z,27.10
2022-08-11T12:21:35.028Z,27.12
2022-08-11T12:24:21.595Z,27.15
2022-08-11T12:27:01.459Z,27.18
2022-08-11T12:29:41.306Z,27.19
2022-08-11T12:32:11.843Z,27.17
2022-08-11T12:34:39.154Z,27.17
2022-08-11T12:37:13.239Z,27.18
2022-08-11T12:40:43.076Z,27.18
2022-08-11T12:43:42.932Z,27.20
2022-08-11T12:46:21.775Z,27.20
2022-08-11T12:49:14.831Z,27.18
2022-08-11T12:52:11.653Z,27.22
2022-08-11T12:55:00.048Z,27.23
2022-08-11T12:57:51.707Z,27.23
2022-08-11T13:00:38.054Z,27.23
2022-08-11T13:03:26.972Z,27.22
2022-08-11T13:05:57.466Z,27.25
2022-08-11T13:08:26.629Z,27.26
2022-08-11T13:11:14.495Z,27.24
2022-08-11T13:13:54.782Z,27.26
2022-08-11T13:16:29.289Z,27.23
2022-08-11T13:19:01.777Z,27.20
2022-08-11T13:21:30.078Z,27.17
2022-08-11T13:24:01.818Z,27.18
2022-08-11T13:26:43.409Z,27.18
2022-08-11T13:29:17.522Z,27.17
2022-08-11T13:31:45.710Z,27.17
2022-08-11T13:34:13.362Z,27.15
2022-08-11T13:36:41.639Z,27.15
2022-08-11T13:39:09.649Z,27.15
2022-08-11T13:41:39.362Z,27.17
2022-08-11T13:44:08.285Z,27.16
2022-08-11T13:46:35.945Z,27.20
2022-08-11T13:49:05.304Z,27.20
2022-08-11T13:51:35.239Z,27.23
2022-08-11T13:54:06.052Z,27.26
2022-08-11T13:56:35.182Z,27.25
2022-08-11T13:59:04.149Z,27.26
2022-08-11T14:02:19.972Z,27.28
2022-08-11T14:04:32.331Z,27.27
2022-08-11T14:07:03.191Z,27.29
2022-08-11T14:09:34.996Z,27.29
2022-08-11T14:12:28.227Z,27.31
2022-08-11T14:15:10.397Z,27.32
2022-08-11T14:17:48.909Z,27.33
2022-08-11T14:20:39.150Z,27.37
2022-08-11T14:23:06.050Z,27.40
2022-08-11T14:26:00.475Z,27.40
2022-08-11T14:28:31.528Z,27.46
2022-08-11T14:31:05.408Z,27.46
2022-08-11T14:33:57.966Z,27.50
2022-08-11T14:36:24.014Z,27.52
2022-08-11T14:38:51.485Z,27.57
2022-08-11T14:41:37.905Z,27.59
2022-08-11T14:44:45.026Z,27.60
2022-08-11T14:47:23.402Z,27.57
2022-08-11T14:50:11.523Z,27.62
2022-08-11T14:52:50.619Z,27.64
2022-08-11T14:55:38.717Z,27.67
2022-08-11T14:58:11.798Z,27.72
2022-08-11T15:00:44.640Z,27.78
2022-08-11T15:03:14.601Z,27.81
2022-08-11T15:05:56.494Z,27.84
2022-08-11T15:08:47.102Z,27.88
2022-08-11T15:11:35.192Z,27.89
2022-08-11T15:14:06.180Z,27.91
2022-08-11T15:16:52.286Z,27.93
2022-08-11T15:19:23.456Z,27.95
2022-08-11T15:22:09.358Z,27.97
2022-08-11T15:24:37.074Z,27.97
2022-08-11T15:27:32.422Z,28.00
2022-08-11T15:30:32.498Z,28.04
2022-08-11T15:33:23.550Z,28.04
2022-08-11T15:36:11.045Z,28.04
2022-08-11T15:38:44.372Z,28.08
2022-08-11T15:41:36.094Z,28.09
2022-08-11T15:44:51.409Z,28.10
2022-08-11T15:47:20.468Z,28.13
2022-08-11T15:50:10.602Z,28.14
2022-08-11T15:52:48.458Z,28.16
2022-08-11T15:55:17.330Z,28.13
2022-08-11T15:58:06.421Z,28.15
2022-08-11T16:01:03.914Z,28.19
2022-08-11T16:04:07.931Z,28.18
2022-08-11T16:06:56.015Z,28.17
2022-08-11T16:09:46.821Z,28.16
2022-08-11T16:12:28.371Z,28.16
2022-08-11T16:15:20.112Z,28.17
2022-08-11T16:17:52.149Z,28.17
2022-08-11T16:20:23.708Z,28.18
2022-08-11T16:22:58.951Z,28.18
2022-08-11T16:26:30.465Z,28.17
2022-08-11T16:28:21.734Z,28.13
2022-08-11T16:30:50.229Z,28.13
2022-08-11T16:33:48.815Z,28.13
2022-08-11T16:36:25.395Z,28.13
2022-08-11T16:38:54.353Z,28.12
2022-08-11T16:41:41.733Z,28.12
2022-08-11T16:44:37.834Z,28.10
2022-08-11T16:47:10.426Z,28.06
2022-08-11T16:49:42.997Z,28.03
2022-08-11T16:52:17.345Z,28.01
2022-08-11T16:54:47.608Z,27.98
2022-08-11T16:57:41.717Z,27.94
2022-08-11T17:00:12.580Z,27.92
2022-08-11T17:03:05.623Z,27.88
2022-08-11T17:05:53.669Z,27.85
2022-08-11T17:08:57.514Z,27.79
2022-08-11T17:11:47.652Z,27.75
2022-08-11T17:14:35.107Z,27.72
2022-08-11T17:17:06.264Z,27.70
2022-08-11T17:20:40.428Z,27.65
2022-08-11T17:22:46.341Z,27.63
2022-08-11T17:25:14.951Z,27.61
2022-08-11T17:27:44.713Z,27.58
2022-08-11T17:30:12.438Z,27.56
2022-08-11T17:33:01.320Z,27.52
2022-08-11T17:35:32.777Z,27.47
2022-08-11T17:38:16.579Z,27.40
2022-08-11T17:41:22.955Z,27.37
2022-08-11T17:44:14.586Z,27.34
2022-08-11T17:47:05.975Z,27.29
2022-08-11T17:49:37.754Z,27.28
2022-08-11T17:52:33.359Z,27.23
2022-08-11T17:55:50.914Z,27.17
2022-08-11T17:58:27.694Z,27.12
2022-08-11T18:00:56.121Z,27.06
2022-08-11T18:03:32.719Z,27.00
2022-08-11T18:06:03.724Z,26.97
2022-08-11T18:08:51.620Z,26.93
2022-08-11T18:12:06.894Z,26.85
2022-08-11T18:14:44.564Z,26.79
2022-08-11T18:17:29.999Z,26.72
2022-08-11T18:20:15.449Z,26.66
2022-08-11T18:23:04.586Z,26.62
2022-08-11T18:25:57.314Z,26.55
2022-08-11T18:28:47.844Z,26.48
2022-08-11T18:31:35.001Z,26.41
2022-08-11T18:34:25.415Z,26.33
2022-08-11T18:37:29.317Z,26.25
2022-08-11T18:40:27.002Z,26.19
2022-08-11T18:43:16.193Z,26.12
2022-08-11T18:46:07.812Z,26.04
2022-08-11T18:48:56.481Z,25.98
2022-08-11T18:51:44.508Z,25.94
2022-08-11T18:54:32.376Z,25.85
2022-08-11T18:57:22.049Z,25.78
2022-08-11T19:00:11.063Z,25.71
2022-08-11T19:02:58.670Z,25.63
2022-08-11T19:06:32.026Z,25.54
2022-08-11T19:09:01.119Z,25.44
2022-08-11T19:11:48.756Z,25.36
2022-08-11T19:14:36.747Z,25.28
2022-08-11T19:17:43.497Z,25.17
2022-08-11T19:20:35.324Z,25.06
2022-08-11T19:23:23.606Z,24.93
2022-08-11T19:26:09.562Z,24.80
2022-08-11T19:28:57.555Z,24.68
2022-08-11T19:31:45.347Z,24.56
2022-08-11T19:34:35.122Z,24.45
2022-08-11T19:37:25.015Z,24.33
2022-08-11T19:40:19.783Z,24.19
2022-08-11T19:43:14.814Z,24.04
2022-08-11T19:46:18.992Z,23.93
2022-08-11T19:49:08.228Z,23.84
2022-08-11T19:51:56.211Z,23.74
2022-08-11T19:54:47.294Z,23.61
2022-08-11T19:57:39.390Z,23.52
2022-08-11T20:00:32.895Z,23.44
2022-08-11T20:03:20.403Z,23.33
2022-08-11T20:06:08.795Z,23.24
2022-08-11T20:08:58.768Z,23.14
2022-08-11T20:11:49.274Z,23.05
2022-08-11T20:14:38.764Z,22.97
2022-08-11T20:17:26.646Z,22.84
2022-08-11T20:20:12.085Z,22.72
2022-08-11T20:22:59.297Z,22.60
2022-08-11T20:25:46.669Z,22.51
2022-08-11T20:28:34.896Z,22.42
2022-08-11T20:31:23.025Z,22.32
2022-08-11T20:34:09.038Z,22.22
2022-08-11T20:36:57.270Z,22.11
2022-08-11T20:39:44.079Z,22.04
2022-08-11T20:42:31.085Z,21.94
2022-08-11T20:45:23.807Z,21.84
2022-08-11T20:48:14.770Z,21.76
2022-08-11T20:51:07.372Z,21.70
2022-08-11T20:53:59.567Z,21.63
2022-08-11T20:56:53.148Z,21.56
2022-08-11T20:59:49.522Z,21.48
2022-08-11T21:02:44.575Z,21.40
2022-08-11T21:06:10.466Z,21.29
2022-08-11T21:08:41.744Z,21.23
2022-08-11T21:11:28.926Z,21.16
2022-08-11T21:14:15.921Z,21.09
2022-08-11T21:17:04.598Z,21.01
2022-08-11T21:20:16.928Z,20.94
2022-08-11T21:23:10.609Z,20.90
2022-08-11T21:26:08.241Z,20.83
2022-08-11T21:28:56.510Z,20.78
2022-08-11T21:31:44.113Z,20.72
2022-08-11T21:34:32.609Z,20.64
2022-08-11T21:37:20.231Z,20.58
2022-08-11T21:40:16.371Z,20.54
2022-08-11T21:43:05.824Z,20.48
2022-08-11T21:45:53.624Z,20.42
2022-08-11T21:48:41.586Z,20.36
2022-08-11T21:51:27.266Z,20.29
2022-08-11T21:54:13.550Z,20.25
2022-08-11T21:56:59.301Z,20.18
2022-08-11T22:00:03.534Z,20.11
2022-08-11T22:02:53.533Z,20.07
2022-08-11T22:05:40.154Z,20.02
2022-08-11T22:08:26.833Z,19.94
2022-08-11T22:11:13.026Z,19.91
2022-08-11T22:14:02.974Z,19.86
2022-08-11T22:16:53.419Z,19.82
2022-08-11T22:19:40.514Z,19.78
2022-08-11T22:22:29.333Z,19.75
2022-08-11T22:25:18.552Z,19.71
2022-08-11T22:28:04.700Z,19.69
2022-08-11T22:30:50.831Z,19.64
2022-08-11T22:34:02.323Z,19.61
2022-08-11T22:36:46.082Z,19.56
2022-08-11T22:39:35.291Z,19.52
2022-08-11T22:42:30.155Z,19.47
2022-08-11T22:45:21.227Z,19.42
2022-08-11T22:48:09.536Z,19.36
2022-08-11T22:50:59.597Z,19.34
2022-08-11T22:53:57.848Z,19.29
2022-08-11T22:56:50.068Z,19.24
2022-08-11T22:59:38.082Z,19.18
2022-08-11T23:02:25.524Z,19.10
2022-08-11T23:05:11.961Z,19.06
2022-08-11T23:07:57.882Z,19.00
2022-08-11T23:10:44.746Z,18.95
2022-08-11T23:13:31.427Z,18.92
2022-08-11T23:16:17.746Z,18.83
2022-08-11T23:19:04.257Z,18.79
2022-08-11T23:21:50.526Z,18.73
2022-08-11T23:24:36.935Z,18.68
2022-08-11T23:27:24.500Z,18.61
2022-08-11T23:30:13.340Z,18.58
2022-08-11T23:33:03.802Z,18.52
2022-08-11T23:35:56.498Z,18.48
2022-08-11T23:38:45.882Z,18.43
2022-08-11T23:41:34.962Z,18.40
2022-08-11T23:44:21.908Z,18.32
2022-08-11T23:47:08.841Z,18.31
2022-08-11T23:49:58.443Z,18.29
2022-08-11T23:52:46.117Z,18.26
2022-08-11T23:55:31.657Z,18.19
2022-08-11T23:58:17.508Z,18.19
